Adustina, Brazil
Current Conditions -  °F | °C
As of 4:00 PM on Friday 31 Oct 2014 (Local Time) from SBAR Reporting Station
Scattered Clouds Scattered Clouds  
Wind Chill: 81°   Ceiling: Unl
Heat Index: 83°   Visibility: 6mi
Dew Point: 68°   Wind: 15mph
Humidity: 65%   Direction: 120°ESE
Pressure: 29.94"   Gusts: NA
Location:  10.53°S, 38.1°W
Report Text: SBAR 311900Z 12013KT 9999 SCT018 SCT100 27/20 Q1014
Loading
Personal Weather Stations






























Interactive Weather Map
Tropical Storm Tracking
New forecast layout! Learn more

10-Day Weather Forecast

Advertisements
Track Severe Weather on mobile